Time;durP1;ratioP1;P1;durP2;ratioP2;P2;SDS_P1;SDS_P2;PMS_P1;PMS_P2;Temp;Humidity;BMP_temperature;BMP_pressure;BME280_temperature;BME280_humidity;BME280_pressure;Samples;Min_cycle;Max_cycle;Signal;HPM_P1;HPM_P2
2024/05/05 00:01:18;;;;;;;3.65;3.30;;;10.90;99.90;;;;;;5467706;26;20006;-68
2024/05/05 00:03:44;;;;;;;3.75;3.38;;;10.90;99.90;;;;;;5461467;26;19991;-68
2024/05/05 00:06:09;;;;;;;4.45;4.05;;;10.90;99.90;;;;;;5469238;26;20068;-69
2024/05/05 00:08:35;;;;;;;5.32;3.13;;;10.90;99.90;;;;;;5452378;26;20065;-69
2024/05/05 00:11:00;;;;;;;3.85;3.35;;;10.90;99.90;;;;;;5438546;26;20071;-69
2024/05/05 00:13:26;;;;;;;5.55;3.20;;;10.90;99.90;;;;;;5468379;26;20067;-69
2024/05/05 00:15:51;;;;;;;4.60;3.58;;;10.90;99.90;;;;;;5440835;26;20006;-69
2024/05/05 00:18:17;;;;;;;4.35;3.30;;;10.90;99.90;;;;;;5446336;26;20009;-69
2024/05/05 00:20:43;;;;;;;4.05;3.25;;;10.90;99.90;;;;;;5467919;26;20002;-70
2024/05/05 00:23:09;;;;;;;3.80;3.28;;;10.90;99.90;;;;;;5451714;26;19998;-69
2024/05/05 00:25:35;;;;;;;3.72;2.83;;;11.00;99.90;;;;;;5472597;26;20016;-69
2024/05/05 00:28:00;;;;;;;5.38;3.38;;;11.10;99.90;;;;;;5450803;26;20002;-68
2024/05/05 00:30:26;;;;;;;3.00;2.80;;;11.10;99.90;;;;;;5470627;26;20007;-69
2024/05/05 00:32:51;;;;;;;3.55;3.10;;;11.00;99.90;;;;;;5438287;26;19995;-69
2024/05/05 00:35:17;;;;;;;4.32;3.55;;;11.10;99.90;;;;;;5473796;26;19999;-69
2024/05/05 00:37:42;;;;;;;3.53;3.17;;;11.10;99.90;;;;;;5476999;26;20411;-68
2024/05/05 00:40:08;;;;;;;4.10;3.47;;;11.20;99.90;;;;;;5473777;26;19998;-68
2024/05/05 00:42:35;;;;;;;;;;;11.10;99.90;;;;;;5446675;26;20002;-68
2024/05/05 00:45:01;;;;;;;3.72;3.03;;;11.10;99.90;;;;;;5437760;26;19938;-69
2024/05/05 00:47:27;;;;;;;4.70;3.40;;;11.20;99.90;;;;;;5439331;26;20065;-69
2024/05/05 00:49:54;;;;;;;3.53;3.22;;;11.20;99.90;;;;;;5474748;26;20002;-68
2024/05/05 00:52:20;;;;;;;3.95;3.60;;;11.20;99.90;;;;;;5470447;26;19990;-69
2024/05/05 00:54:46;;;;;;;5.63;3.35;;;11.20;99.90;;;;;;5475868;26;20006;-69
2024/05/05 00:57:12;;;;;;;4.00;3.20;;;11.20;99.90;;;;;;5462120;26;20014;-68
2024/05/05 00:59:38;;;;;;;5.22;3.88;;;11.20;99.90;;;;;;5447806;26;20002;-68
2024/05/05 01:02:04;;;;;;;4.35;3.70;;;11.20;99.90;;;;;;5446866;26;20014;-68
2024/05/05 01:04:30;;;;;;;4.20;3.47;;;11.20;99.90;;;;;;5465410;26;20017;-69
2024/05/05 01:06:56;;;;;;;4.43;4.00;;;11.20;99.90;;;;;;5469356;26;20133;-69
2024/05/05 01:09:22;;;;;;;;;;;11.20;99.90;;;;;;5465514;26;19995;-69
2024/05/05 01:11:48;;;;;;;4.18;3.78;;;11.20;99.90;;;;;;5449881;26;19924;-69
2024/05/05 01:14:13;;;;;;;4.85;4.32;;;11.20;99.90;;;;;;5468575;26;20594;-69
2024/05/05 01:16:39;;;;;;;4.05;3.75;;;11.20;99.90;;;;;;5468724;26;20412;-68
2024/05/05 01:19:04;;;;;;;4.88;4.40;;;11.10;99.90;;;;;;5470123;26;20017;-69
2024/05/05 01:21:30;;;;;;;4.50;4.10;;;11.10;99.90;;;;;;5446932;26;19998;-69
2024/05/05 01:23:55;;;;;;;5.57;4.40;;;11.10;99.90;;;;;;5445000;26;19995;-69
2024/05/05 01:26:21;;;;;;;5.15;4.65;;;11.10;99.90;;;;;;5435923;26;19999;-69
2024/05/05 01:28:47;;;;;;;5.30;4.57;;;11.10;99.90;;;;;;5473813;26;20005;-69
2024/05/05 01:31:12;;;;;;;5.22;4.30;;;11.10;99.90;;;;;;5470264;26;20005;-69
2024/05/05 01:33:38;;;;;;;4.60;4.20;;;11.10;99.90;;;;;;5452386;26;20066;-69
2024/05/05 01:36:04;;;;;;;6.18;4.78;;;11.10;99.90;;;;;;5467321;26;20082;-69
2024/05/05 01:38:29;;;;;;;5.40;4.90;;;11.10;99.90;;;;;;5449325;26;19999;-70
2024/05/05 01:40:55;;;;;;;5.25;4.75;;;11.10;99.90;;;;;;5451887;26;19999;-69
2024/05/05 01:43:20;;;;;;;5.20;4.70;;;11.10;99.90;;;;;;5474622;26;20066;-69
2024/05/05 01:45:46;;;;;;;5.13;4.50;;;11.10;99.90;;;;;;5469912;26;20336;-70
2024/05/05 01:48:11;;;;;;;5.65;5.15;;;11.10;99.90;;;;;;5468747;26;20412;-69
2024/05/05 01:50:37;;;;;;;6.28;5.53;;;11.10;99.90;;;;;;5470787;26;20420;-70
2024/05/05 01:53:03;;;;;;;7.43;5.07;;;11.10;99.90;;;;;;5448899;26;20005;-70
2024/05/05 01:55:29;;;;;;;6.03;5.43;;;11.10;99.90;;;;;;5451981;26;20017;-69
2024/05/05 01:57:54;;;;;;;5.30;4.90;;;11.10;99.90;;;;;;5467112;26;19995;-70
2024/05/05 02:00:20;;;;;;;6.22;5.72;;;11.10;99.90;;;;;;5438903;26;19995;-70
2024/05/05 02:02:45;;;;;;;5.53;5.05;;;11.10;99.90;;;;;;5469335;26;19999;-70
2024/05/05 02:05:11;;;;;;;6.30;5.70;;;11.10;99.90;;;;;;5449285;26;20002;-70
2024/05/05 02:07:36;;;;;;;6.65;6.05;;;11.10;99.90;;;;;;5472444;26;19998;-70
2024/05/05 02:10:02;;;;;;;6.72;5.93;;;11.10;99.90;;;;;;5472101;26;19998;-70
2024/05/05 02:12:28;;;;;;;6.55;5.95;;;11.10;99.90;;;;;;5448025;26;20433;-70
2024/05/05 02:14:54;;;;;;;6.95;6.25;;;11.10;99.90;;;;;;5474185;26;19999;-70
2024/05/05 02:17:19;;;;;;;6.75;6.15;;;11.10;99.90;;;;;;5470510;26;19994;-70
2024/05/05 02:19:45;;;;;;;6.95;6.28;;;11.10;99.90;;;;;;5450228;26;20020;-70
2024/05/05 02:22:10;;;;;;;7.47;6.72;;;11.10;99.90;;;;;;5471408;26;20017;-70
2024/05/05 02:24:36;;;;;;;7.05;6.35;;;11.10;99.90;;;;;;5452038;26;20013;-70
2024/05/05 02:27:01;;;;;;;6.70;6.03;;;11.10;99.90;;;;;;5469583;26;19994;-70
2024/05/05 02:29:27;;;;;;;7.13;6.50;;;11.10;99.90;;;;;;5468556;26;20332;-70
2024/05/05 02:31:52;;;;;;;6.90;6.28;;;11.10;99.90;;;;;;5438686;26;20017;-70
2024/05/05 02:34:18;;;;;;;7.40;6.68;;;11.20;99.90;;;;;;5469334;26;20325;-70
2024/05/05 02:36:43;;;;;;;6.68;6.07;;;11.10;99.90;;;;;;5477460;26;20013;-70
2024/05/05 02:39:09;;;;;;;6.75;6.13;;;11.10;99.90;;;;;;5472621;26;20010;-70
2024/05/05 02:41:35;;;;;;;7.13;6.35;;;11.10;99.90;;;;;;5463347;26;20009;-70
2024/05/05 02:44:00;;;;;;;6.50;5.97;;;11.10;99.90;;;;;;5466196;26;22773;-71
2024/05/05 02:46:26;;;;;;;7.20;6.53;;;11.10;99.90;;;;;;5444063;26;20019;-70
2024/05/05 02:48:52;;;;;;;7.15;6.45;;;11.10;99.90;;;;;;5444130;26;20007;-70
2024/05/05 02:51:17;;;;;;;6.85;6.15;;;11.10;99.90;;;;;;5448922;26;19998;-70
2024/05/05 02:53:43;;;;;;;8.02;6.50;;;11.10;99.90;;;;;;5433832;26;20016;-70
2024/05/05 02:56:08;;;;;;;7.00;5.85;;;11.10;99.90;;;;;;5445299;26;19998;-69
2024/05/05 02:58:34;;;;;;;7.03;6.43;;;11.10;99.90;;;;;;5442155;26;20002;-70
2024/05/05 03:00:59;;;;;;;6.57;5.97;;;11.10;99.90;;;;;;5463501;26;20707;-69
2024/05/05 03:03:26;;;;;;;6.63;6.07;;;11.10;99.90;;;;;;5469153;26;20340;-69
2024/05/05 03:05:52;;;;;;;7.53;6.10;;;11.10;99.90;;;;;;5472386;26;20014;-69
2024/05/05 03:08:17;;;;;;;6.55;5.82;;;11.10;99.90;;;;;;5480861;26;20002;-70
2024/05/05 03:10:43;;;;;;;7.43;6.20;;;11.10;99.90;;;;;;5448473;26;20040;-69
2024/05/05 03:13:09;;;;;;;6.35;5.70;;;11.00;99.90;;;;;;5471542;26;20006;-69
2024/05/05 03:15:34;;;;;;;7.00;6.40;;;11.10;99.90;;;;;;5472977;26;20094;-69
2024/05/05 03:18:00;;;;;;;5.85;5.35;;;11.10;99.90;;;;;;5477963;26;20010;-69
2024/05/05 03:20:26;;;;;;;6.35;5.30;;;11.00;99.90;;;;;;5478846;26;20010;-70
2024/05/05 03:22:51;;;;;;;6.20;5.60;;;11.00;99.90;;;;;;5481471;26;20389;-69
2024/05/05 03:25:17;;;;;;;5.40;5.00;;;11.00;99.90;;;;;;5438119;26;19994;-69
2024/05/05 03:27:44;;;;;;;5.20;4.78;;;11.00;99.90;;;;;;5434244;26;20073;-69
2024/05/05 03:30:15;;;;;;;5.03;4.63;;;10.90;99.90;;;;;;5474702;26;19998;-70
2024/05/05 03:32:40;;;;;;;5.18;4.68;;;10.90;99.90;;;;;;5466365;26;20005;-70
2024/05/05 03:35:06;;;;;;;5.25;4.75;;;11.00;99.90;;;;;;5450702;26;19998;-70
2024/05/05 03:37:31;;;;;;;4.70;4.30;;;10.90;99.90;;;;;;5471269;26;20013;-70
2024/05/05 03:39:57;;;;;;;5.57;4.53;;;10.90;99.90;;;;;;5474405;26;20031;-70
2024/05/05 03:42:23;;;;;;;5.20;4.70;;;10.90;99.90;;;;;;5472453;26;20002;-70
2024/05/05 03:44:48;;;;;;;4.78;4.38;;;10.80;99.90;;;;;;5463781;26;19995;-70
2024/05/05 03:47:14;;;;;;;6.05;5.00;;;10.80;99.90;;;;;;5471021;26;20018;-70
2024/05/05 03:49:39;;;;;;;4.90;4.40;;;10.70;99.90;;;;;;5472520;26;20038;-70
2024/05/05 03:52:05;;;;;;;6.75;4.43;;;10.70;99.90;;;;;;5447676;26;20070;-70
2024/05/05 03:54:31;;;;;;;9.30;5.05;;;10.60;99.90;;;;;;5473270;26;20013;-71
2024/05/05 03:56:56;;;;;;;6.03;5.07;;;10.50;99.90;;;;;;5445045;26;19999;-70
2024/05/05 03:59:22;;;;;;;4.68;4.28;;;10.50;99.90;;;;;;5470809;26;20894;-70
2024/05/05 04:01:48;;;;;;;5.47;4.97;;;10.50;99.90;;;;;;5471273;26;20448;-69
2024/05/05 04:04:16;;;;;;;5.80;5.03;;;10.50;99.90;;;;;;5418053;26;19998;-69
2024/05/05 04:06:42;;;;;;;5.28;4.78;;;10.50;99.90;;;;;;5480126;26;20002;-69
2024/05/05 04:09:07;;;;;;;5.40;4.55;;;10.50;99.90;;;;;;5447826;26;20326;-69
2024/05/05 04:11:33;;;;;;;8.55;5.30;;;10.50;99.90;;;;;;5479810;26;20045;-70
2024/05/05 04:13:58;;;;;;;5.30;4.88;;;10.60;99.90;;;;;;5445512;26;19998;-70
2024/05/05 04:16:24;;;;;;;5.00;4.57;;;10.50;99.90;;;;;;5452085;26;20047;-70
2024/05/05 04:18:50;;;;;;;4.65;4.25;;;10.60;99.90;;;;;;5478530;26;20451;-69
2024/05/05 04:21:15;;;;;;;7.50;4.80;;;10.60;99.90;;;;;;5465088;26;19998;-70
2024/05/05 04:23:41;;;;;;;7.65;4.15;;;10.60;99.90;;;;;;5471766;26;20005;-69
2024/05/05 04:26:06;;;;;;;4.75;4.18;;;10.60;99.90;;;;;;5449849;26;20006;-70
2024/05/05 04:28:32;;;;;;;4.65;4.15;;;10.60;99.90;;;;;;5469901;26;20152;-69
2024/05/05 04:30:57;;;;;;;4.70;4.10;;;10.60;99.90;;;;;;5469904;26;20040;-69
2024/05/05 04:33:23;;;;;;;6.50;4.45;;;10.60;99.90;;;;;;5468564;26;20047;-69
2024/05/05 04:35:48;;;;;;;5.25;4.13;;;10.60;99.90;;;;;;5448314;26;20005;-69
2024/05/05 04:38:14;;;;;;;4.47;4.00;;;10.60;99.90;;;;;;5445207;26;20017;-70
2024/05/05 04:40:40;;;;;;;4.75;4.00;;;10.60;99.90;;;;;;5471462;26;19994;-69
2024/05/05 04:43:05;;;;;;;4.45;4.05;;;10.60;99.90;;;;;;5469661;26;20439;-69
2024/05/05 04:45:31;;;;;;;8.95;4.05;;;10.60;99.90;;;;;;5470445;26;20336;-69
2024/05/05 04:47:56;;;;;;;3.58;3.28;;;10.60;99.90;;;;;;5467782;26;20449;-69
2024/05/05 04:50:22;;;;;;;3.75;3.45;;;10.60;99.90;;;;;;5444305;26;20394;-69
2024/05/05 04:52:47;;;;;;;4.78;3.30;;;10.60;99.90;;;;;;5464448;26;20329;-69
2024/05/05 04:55:13;;;;;;;6.20;3.45;;;10.60;99.90;;;;;;5469383;26;20012;-69
2024/05/05 04:57:38;;;;;;;4.43;3.25;;;10.60;99.90;;;;;;5447226;26;20074;-69
2024/05/05 05:00:04;;;;;;;4.55;3.60;;;10.60;99.90;;;;;;5446330;26;20043;-70
2024/05/05 05:02:30;;;;;;;5.05;3.15;;;10.60;99.90;;;;;;5444454;26;20137;-70
2024/05/05 05:04:55;;;;;;;4.13;3.15;;;10.60;99.90;;;;;;5479115;26;20028;-70
2024/05/05 05:07:21;;;;;;;3.50;3.05;;;10.60;99.90;;;;;;5440661;26;20002;-69
2024/05/05 05:09:46;;;;;;;6.60;3.42;;;10.60;99.90;;;;;;5439616;26;20034;-70
2024/05/05 05:12:12;;;;;;;4.82;3.55;;;10.60;99.90;;;;;;5436118;26;20011;-69
2024/05/05 05:14:38;;;;;;;3.90;3.50;;;10.70;99.90;;;;;;5461160;26;20005;-69
2024/05/05 05:17:03;;;;;;;3.78;3.33;;;10.70;99.90;;;;;;5437681;26;20020;-70
2024/05/05 05:19:29;;;;;;;3.53;3.22;;;10.70;99.90;;;;;;5469660;26;20036;-70
2024/05/05 05:21:54;;;;;;;3.50;3.08;;;10.80;99.90;;;;;;5440134;26;20080;-69
2024/05/05 05:24:20;;;;;;;3.40;3.10;;;10.90;99.90;;;;;;5471442;26;19998;-70
2024/05/05 05:26:45;;;;;;;3.53;3.22;;;11.00;99.90;;;;;;5460195;26;20089;-70
2024/05/05 05:29:11;;;;;;;4.88;3.17;;;11.10;99.90;;;;;;5473011;26;20022;-69
2024/05/05 05:31:36;;;;;;;3.33;3.03;;;11.10;99.90;;;;;;5472102;26;20065;-70
2024/05/05 05:34:02;;;;;;;3.00;2.80;;;11.20;99.90;;;;;;5468907;26;19998;-70
2024/05/05 05:36:27;;;;;;;4.22;2.50;;;11.30;99.90;;;;;;5474672;26;19999;-70
2024/05/05 05:38:53;;;;;;;3.13;2.60;;;11.30;99.90;;;;;;5472327;26;19998;-68
2024/05/05 05:41:19;;;;;;;3.72;2.60;;;11.30;99.90;;;;;;5446635;26;20010;-70
2024/05/05 05:43:44;;;;;;;5.63;2.92;;;11.30;99.90;;;;;;5445496;26;20394;-69
2024/05/05 05:46:10;;;;;;;2.63;2.42;;;11.20;99.90;;;;;;5446837;26;20454;-68
2024/05/05 05:48:35;;;;;;;4.22;2.33;;;11.20;99.90;;;;;;5444828;26;19998;-69
2024/05/05 05:51:01;;;;;;;2.92;2.47;;;11.10;99.90;;;;;;5475829;26;19998;-69
2024/05/05 05:53:26;;;;;;;3.97;2.85;;;11.10;99.90;;;;;;5469852;26;20010;-69
2024/05/05 05:55:52;;;;;;;3.17;2.72;;;11.10;99.90;;;;;;5469167;26;20048;-69
2024/05/05 05:58:17;;;;;;;3.38;3.08;;;11.10;99.90;;;;;;5476761;26;19994;-69
2024/05/05 06:00:43;;;;;;;4.63;3.10;;;11.10;99.90;;;;;;5445743;26;20010;-68
2024/05/05 06:03:08;;;;;;;3.58;3.28;;;11.10;99.90;;;;;;5470642;26;20002;-68
2024/05/05 06:05:34;;;;;;;3.72;3.33;;;11.10;99.90;;;;;;5476448;26;20017;-68
2024/05/05 06:08:00;;;;;;;4.68;3.15;;;11.10;99.90;;;;;;5469204;26;20010;-68
2024/05/05 06:10:25;;;;;;;3.17;2.88;;;11.10;99.90;;;;;;5470448;26;20010;-68
2024/05/05 06:12:51;;;;;;;3.45;3.15;;;11.10;99.90;;;;;;5444899;26;19999;-68
2024/05/05 06:15:16;;;;;;;4.53;3.67;;;11.00;99.90;;;;;;5465758;26;19999;-68
2024/05/05 06:17:42;;;;;;;4.80;3.60;;;11.00;99.90;;;;;;5445975;26;20013;-68
2024/05/05 06:20:08;;;;;;;4.55;3.88;;;11.00;99.90;;;;;;5473811;26;19998;-68
2024/05/05 06:22:33;;;;;;;4.82;3.60;;;11.00;99.90;;;;;;5466962;26;20057;-68
2024/05/05 06:25:00;;;;;;;3.75;3.45;;;10.90;99.90;;;;;;5462548;26;20329;-68
2024/05/05 06:27:26;;;;;;;4.03;3.60;;;10.90;99.90;;;;;;5471832;26;20013;-68
2024/05/05 06:29:53;;;;;;;4.50;4.10;;;10.90;99.90;;;;;;5472722;26;20009;-69
2024/05/05 06:32:18;;;;;;;5.20;4.35;;;10.80;99.90;;;;;;5470239;26;20002;-69
2024/05/05 06:34:44;;;;;;;4.75;4.32;;;10.90;99.90;;;;;;5469763;26;20456;-69
2024/05/05 06:37:10;;;;;;;6.20;5.00;;;10.90;99.90;;;;;;5476677;26;20073;-69
2024/05/05 06:39:35;;;;;;;;;;;10.90;99.90;;;;;;5467595;26;20473;-69
2024/05/05 06:42:01;;;;;;;5.60;5.10;;;10.90;99.90;;;;;;5470672;26;19924;-69
2024/05/05 06:44:26;;;;;;;5.57;5.07;;;10.90;99.90;;;;;;5476979;26;19995;-69
2024/05/05 06:46:53;;;;;;;6.03;5.47;;;11.00;99.90;;;;;;5475770;26;20433;-69
2024/05/05 06:49:18;;;;;;;;;;;11.00;99.90;;;;;;5472066;26;20002;-69
2024/05/05 06:51:45;;;;;;;6.80;5.22;;;11.10;99.90;;;;;;5476365;26;19924;-69
2024/05/05 06:54:11;;;;;;;7.32;6.03;;;11.10;99.90;;;;;;5471629;26;20006;-69
2024/05/05 06:56:37;;;;;;;7.55;6.85;;;11.10;99.90;;;;;;5453131;26;20063;-69
2024/05/05 06:59:02;;;;;;;7.18;6.30;;;11.10;99.90;;;;;;5475895;26;19998;-69
2024/05/05 07:01:28;;;;;;;8.38;6.22;;;11.20;99.90;;;;;;5469742;26;20514;-69
2024/05/05 07:03:53;;;;;;;9.27;6.78;;;11.20;99.90;;;;;;5471485;26;20344;-69
2024/05/05 07:06:19;;;;;;;7.72;7.00;;;11.10;99.90;;;;;;5474943;26;20042;-69
2024/05/05 07:08:45;;;;;;;8.35;7.50;;;11.10;99.90;;;;;;5467157;26;19991;-69
2024/05/05 07:11:10;;;;;;;8.45;7.35;;;11.20;99.90;;;;;;5451238;26;20018;-69
2024/05/05 07:13:36;;;;;;;8.65;7.75;;;11.20;99.90;;;;;;5465008;26;20016;-69
2024/05/05 07:16:01;;;;;;;8.15;7.35;;;11.10;99.90;;;;;;5476518;26;20013;-69
2024/05/05 07:18:27;;;;;;;8.77;7.85;;;11.10;99.90;;;;;;5445144;26;19999;-69
2024/05/05 07:20:52;;;;;;;9.25;8.27;;;11.10;99.90;;;;;;5450826;26;20213;-69
2024/05/05 07:23:18;;;;;;;8.00;7.20;;;11.20;99.90;;;;;;5467345;26;20426;-69
2024/05/05 07:25:44;;;;;;;9.52;8.63;;;11.20;99.90;;;;;;5446874;26;19995;-69
2024/05/05 07:28:09;;;;;;;13.77;8.88;;;11.20;99.90;;;;;;5475402;26;20001;-69
2024/05/05 07:30:35;;;;;;;9.80;8.90;;;11.30;99.90;;;;;;5476400;26;20017;-68
2024/05/05 07:33:00;;;;;;;11.75;8.88;;;11.30;99.90;;;;;;5473731;26;20132;-68
2024/05/05 07:35:26;;;;;;;12.20;10.15;;;11.40;99.90;;;;;;5468859;26;20017;-68
2024/05/05 07:37:51;;;;;;;10.63;9.52;;;11.40;99.90;;;;;;5468189;26;20013;-68
2024/05/05 07:40:17;;;;;;;10.10;9.10;;;11.40;99.90;;;;;;5472057;26;20052;-68
2024/05/05 07:42:48;;;;;;;12.25;9.63;;;11.40;99.90;;;;;;5465194;26;20002;-68
2024/05/05 07:45:14;;;;;;;10.18;9.18;;;11.50;99.90;;;;;;5472298;26;19994;-68
2024/05/05 07:47:39;;;;;;;11.02;9.55;;;11.40;99.90;;;;;;5449662;26;20006;-69
2024/05/05 07:50:05;;;;;;;12.43;9.93;;;11.40;99.90;;;;;;5472625;26;20087;-68
2024/05/05 07:52:31;;;;;;;10.15;9.15;;;11.40;99.90;;;;;;5450151;26;20017;-68
2024/05/05 07:54:56;;;;;;;11.23;9.43;;;11.50;99.90;;;;;;5449857;26;19999;-68
2024/05/05 07:57:22;;;;;;;11.35;9.52;;;11.50;99.90;;;;;;5445670;26;19999;-68
2024/05/05 07:59:47;;;;;;;9.98;8.98;;;11.50;99.90;;;;;;5452465;26;19994;-68
2024/05/05 08:02:13;;;;;;;10.18;8.60;;;11.50;99.90;;;;;;5449417;26;20010;-69
2024/05/05 08:04:38;;;;;;;9.65;8.65;;;11.60;99.90;;;;;;5470116;26;20020;-68
2024/05/05 08:07:04;;;;;;;9.02;8.13;;;11.60;99.90;;;;;;5471284;26;20500;-70
2024/05/05 08:09:30;;;;;;;8.43;7.53;;;11.60;99.90;;;;;;5471465;26;20531;-69
2024/05/05 08:11:55;;;;;;;9.07;7.32;;;11.70;99.90;;;;;;5478496;26;20353;-69
2024/05/05 08:14:21;;;;;;;7.68;6.32;;;11.70;99.90;;;;;;5476543;26;20071;-69
2024/05/05 08:16:46;;;;;;;6.45;5.78;;;11.70;99.90;;;;;;5445984;26;20038;-69
2024/05/05 08:19:12;;;;;;;7.07;6.38;;;11.70;99.90;;;;;;5474927;26;20001;-69
2024/05/05 08:21:38;;;;;;;7.35;6.55;;;11.80;99.90;;;;;;5474162;26;20017;-69
2024/05/05 08:24:03;;;;;;;;;;;11.80;99.90;;;;;;5447620;26;20009;-70
2024/05/05 08:26:29;;;;;;;7.43;5.93;;;11.80;99.90;;;;;;5464154;26;19924;-69
2024/05/05 08:28:55;;;;;;;6.45;5.85;;;11.80;99.90;;;;;;5473044;26;20005;-69
2024/05/05 08:31:20;;;;;;;7.15;5.70;;;11.80;99.90;;;;;;5440581;26;20368;-68
2024/05/05 08:33:46;;;;;;;7.32;5.43;;;11.90;99.90;;;;;;5467900;26;20587;-70
2024/05/05 08:36:11;;;;;;;5.95;5.35;;;11.90;99.90;;;;;;5471759;26;20002;-69
2024/05/05 08:38:37;;;;;;;5.35;4.85;;;11.90;99.90;;;;;;5441245;26;20187;-69
2024/05/05 08:41:22;;;;;;;6.35;4.93;;;11.90;99.90;;;;;;5472126;26;20037;-69
2024/05/05 08:43:50;;;;;;;6.15;4.50;;;12.00;99.90;;;;;;5465783;26;20009;-68
2024/05/05 08:46:16;;;;;;;6.93;4.63;;;11.90;99.90;;;;;;5480739;26;20010;-68
2024/05/05 08:48:46;;;;;;;4.85;4.03;;;11.90;99.90;;;;;;5452787;26;20089;-68
2024/05/05 08:51:16;;;;;;;6.60;4.38;;;12.00;99.90;;;;;;5452550;26;20001;-70
2024/05/05 08:53:48;;;;;;;4.60;4.18;;;12.00;99.90;;;;;;5446287;26;20007;-69
2024/05/05 08:56:15;;;;;;;4.93;4.43;;;12.00;99.90;;;;;;5447874;26;19994;-69
2024/05/05 08:58:41;;;;;;;4.97;4.05;;;12.00;99.90;;;;;;5471578;26;19998;-69
2024/05/05 09:01:25;;;;;;;5.30;4.18;;;12.10;99.90;;;;;;5440175;26;20317;-69
2024/05/05 09:03:51;;;;;;;4.75;4.20;;;12.10;99.90;;;;;;5473470;26;19994;-69
2024/05/05 09:06:16;;;;;;;5.47;4.15;;;11.90;99.90;;;;;;5444748;26;20016;-69
2024/05/05 09:08:42;;;;;;;4.60;4.10;;;11.90;99.90;;;;;;5474822;26;20006;-69
2024/05/05 09:11:11;;;;;;;4.68;4.28;;;11.90;99.90;;;;;;5473072;26;20087;-69
2024/05/05 09:13:37;;;;;;;5.55;4.15;;;11.90;99.90;;;;;;5433440;26;19998;-69
2024/05/05 09:16:03;;;;;;;4.72;4.30;;;11.90;99.90;;;;;;5465868;26;20013;-69
2024/05/05 09:18:29;;;;;;;4.70;4.20;;;11.90;99.90;;;;;;5465647;26;20023;-69
2024/05/05 09:20:55;;;;;;;4.80;4.32;;;12.00;99.90;;;;;;5475255;26;20002;-69
2024/05/05 09:23:20;;;;;;;5.20;4.70;;;12.00;99.90;;;;;;5448341;26;19995;-68
2024/05/05 09:25:46;;;;;;;6.10;4.65;;;12.10;99.90;;;;;;5440470;26;20017;-69
2024/05/05 09:28:13;;;;;;;4.35;3.50;;;12.20;99.90;;;;;;5444146;26;20010;-69
2024/05/05 09:30:40;;;;;;;4.53;4.10;;;12.40;99.90;;;;;;5471018;26;19999;-69
2024/05/05 09:33:07;;;;;;;4.15;3.83;;;12.50;99.90;;;;;;5475838;26;19998;-69
2024/05/05 09:35:34;;;;;;;5.35;3.50;;;12.50;99.90;;;;;;5449925;26;20013;-69
2024/05/05 09:38:01;;;;;;;5.88;4.32;;;12.60;99.90;;;;;;5471402;26;20367;-68
2024/05/05 09:40:30;;;;;;;4.82;4.18;;;12.70;99.90;;;;;;5471955;26;19998;-69
2024/05/05 09:42:56;;;;;;;4.10;3.70;;;12.80;99.90;;;;;;5476331;26;20073;-68
2024/05/05 09:45:23;;;;;;;3.85;3.45;;;12.80;99.90;;;;;;5471626;26;20022;-69
2024/05/05 09:47:52;;;;;;;6.28;3.55;;;12.90;99.90;;;;;;5447659;26;20036;-68
2024/05/05 09:50:23;;;;;;;4.47;3.83;;;12.90;99.90;;;;;;5469011;26;22173;-69
2024/05/05 09:53:17;;;;;;;4.18;3.42;;;12.90;99.90;;;;;;5474598;26;20047;-68
2024/05/05 09:55:46;;;;;;;4.30;3.90;;;13.00;99.90;;;;;;5471068;26;20001;-69
2024/05/05 09:58:21;;;;;;;4.68;3.30;;;13.10;99.90;;;;;;5438985;26;20010;-68
2024/05/05 10:00:47;;;;;;;3.67;3.33;;;13.10;99.90;;;;;;5446452;26;20006;-69
2024/05/05 10:03:13;;;;;;;4.40;3.97;;;13.20;99.90;;;;;;5444805;26;20006;-69
2024/05/05 10:05:39;;;;;;;4.72;3.17;;;13.20;99.90;;;;;;5466343;26;19998;-69
2024/05/05 10:08:06;;;;;;;4.07;3.08;;;13.20;99.90;;;;;;5446564;26;19998;-69
2024/05/05 10:10:32;;;;;;;6.45;3.45;;;13.10;99.90;;;;;;5445715;26;20026;-69
2024/05/05 10:12:58;;;;;;;3.58;2.92;;;13.20;99.90;;;;;;5445362;26;20009;-69
2024/05/05 10:15:24;;;;;;;;;;;13.30;99.90;;;;;;5471893;26;19990;-69
2024/05/05 10:17:49;;;;;;;3.70;2.92;;;13.40;99.90;;;;;;5469639;26;20335;-69
2024/05/05 10:20:19;;;;;;;2.97;2.50;;;13.50;99.90;;;;;;5445244;26;20067;-69
2024/05/05 10:22:45;;;;;;;2.47;2.28;;;13.60;99.90;;;;;;5466952;26;20009;-68
2024/05/05 10:25:11;;;;;;;4.75;2.03;;;13.80;99.90;;;;;;5442884;26;19999;-69
2024/05/05 10:27:38;;;;;;;2.25;2.05;;;14.00;99.90;;;;;;5474208;26;20006;-68
2024/05/05 10:30:04;;;;;;;2.33;2.05;;;14.00;99.90;;;;;;5450262;26;20002;-67
2024/05/05 10:32:31;;;;;;;2.40;2.15;;;14.00;99.90;;;;;;5465541;26;19999;-68
2024/05/05 10:34:57;;;;;;;2.60;2.20;;;14.10;99.90;;;;;;5474397;26;20383;-68
2024/05/05 10:37:24;;;;;;;2.72;2.20;;;14.30;99.90;;;;;;5443903;26;20003;-67
2024/05/05 10:39:50;;;;;;;2.40;2.10;;;14.40;99.90;;;;;;5469366;26;20042;-68
2024/05/05 10:42:20;;;;;;;2.08;1.98;;;14.60;99.90;;;;;;5471075;26;20002;-68
2024/05/05 10:44:46;;;;;;;2.33;1.80;;;14.80;99.90;;;;;;5473756;26;20006;-68
2024/05/05 10:47:13;;;;;;;2.50;2.30;;;14.90;99.90;;;;;;5445361;26;20013;-68
2024/05/05 10:49:40;;;;;;;4.10;1.50;;;15.10;99.90;;;;;;5468062;26;20001;-67
2024/05/05 10:52:06;;;;;;;2.92;1.90;;;15.40;99.90;;;;;;5473970;26;20009;-67
2024/05/05 10:54:33;;;;;;;;;;;15.50;99.90;;;;;;5466496;26;20086;-67
2024/05/05 10:56:59;;;;;;;2.30;1.80;;;15.60;99.90;;;;;;5446033;26;20235;-68
2024/05/05 10:59:26;;;;;;;5.43;2.22;;;15.60;99.90;;;;;;5470385;26;20006;-67
2024/05/05 11:01:53;;;;;;;2.55;1.50;;;15.60;99.90;;;;;;5471784;26;20002;-67
2024/05/05 11:04:23;;;;;;;4.25;1.90;;;15.50;99.90;;;;;;5474400;26;20068;-67
2024/05/05 11:06:50;;;;;;;2.65;1.63;;;15.40;99.90;;;;;;5474386;26;20005;-67
2024/05/05 11:09:16;;;;;;;2.15;1.77;;;15.20;99.90;;;;;;5444206;26;20007;-67
2024/05/05 11:11:41;;;;;;;3.28;2.38;;;15.10;99.90;;;;;;5445100;26;20469;-67
2024/05/05 11:14:08;;;;;;;;;;;15.00;99.90;;;;;;5471855;26;20378;-67
2024/05/05 11:16:43;;;;;;;2.03;1.80;;;14.90;99.90;;;;;;5465864;26;19923;-67
2024/05/05 11:19:09;;;;;;;4.93;2.13;;;14.90;99.90;;;;;;5443278;26;20013;-67
2024/05/05 11:21:34;;;;;;;1.70;1.60;;;14.90;99.90;;;;;;5468157;26;20038;-67
2024/05/05 11:24:02;;;;;;;3.00;1.55;;;15.10;99.90;;;;;;5476415;26;20012;-68
2024/05/05 11:26:29;;;;;;;2.17;1.73;;;15.30;99.90;;;;;;5450044;26;20325;-68
2024/05/05 11:28:55;;;;;;;1.77;1.67;;;15.50;99.90;;;;;;5472787;26;20100;-68
2024/05/05 11:31:20;;;;;;;;;;;15.50;99.90;;;;;;5473804;26;20006;-67
2024/05/05 11:33:46;;;;;;;1.73;1.25;;;15.50;99.90;;;;;;5470862;26;20324;-67
2024/05/05 11:36:11;;;;;;;;;;;15.40;99.90;;;;;;5471384;26;20118;-67
2024/05/05 11:38:37;;;;;;;1.02;1.02;;;15.40;99.90;;;;;;5472602;26;20052;-67
2024/05/05 11:41:03;;;;;;;;;;;15.40;99.90;;;;;;5477699;26;20010;-67
2024/05/05 11:43:37;;;;;;;1.55;1.45;;;15.60;99.90;;;;;;5472912;26;19931;-67
2024/05/05 11:46:04;;;;;;;1.40;1.30;;;15.80;99.90;;;;;;5463645;26;20034;-66
2024/05/05 11:49:07;;;;;;;1.92;1.27;;;15.90;99.90;;;;;;5447496;26;19998;-67
2024/05/05 11:51:38;;;;;;;3.92;1.60;;;16.00;99.90;;;;;;5474697;26;20014;-67
2024/05/05 11:54:11;;;;;;;3.13;1.30;;;15.80;99.90;;;;;;5450266;26;20306;-67
2024/05/05 11:56:37;;;;;;;2.33;1.30;;;15.80;99.90;;;;;;5459951;26;19998;-67
2024/05/05 11:59:03;;;;;;;1.10;1.02;;;15.70;99.90;;;;;;5472740;26;20002;-67
2024/05/05 12:01:29;;;;;;;;;;;15.70;99.90;;;;;;5481633;26;20009;-67
2024/05/05 12:03:55;;;;;;;1.80;1.25;;;15.60;99.90;;;;;;5475543;26;19928;-67
2024/05/05 12:06:22;;;;;;;1.98;1.13;;;15.60;99.90;;;;;;5467277;26;20007;-67
2024/05/05 12:08:48;;;;;;;1.77;1.17;;;15.70;99.90;;;;;;5444685;26;20008;-67
2024/05/05 12:11:14;;;;;;;;;;;15.70;99.90;;;;;;5448295;26;19995;-67
2024/05/05 12:13:40;;;;;;;1.77;1.10;;;15.80;99.90;;;;;;5450851;26;19965;-68
2024/05/05 12:16:29;;;;;;;1.98;1.08;;;15.90;99.90;;;;;;5450799;26;19998;-68
2024/05/05 12:19:02;;;;;;;1.00;0.90;;;15.90;99.90;;;;;;5447365;26;19994;-68
2024/05/05 12:21:29;;;;;;;2.30;1.40;;;15.90;99.90;;;;;;5471281;26;20013;-68
2024/05/05 12:23:55;;;;;;;1.13;1.02;;;16.00;99.90;;;;;;5443184;26;19998;-69
2024/05/05 12:26:30;;;;;;;;;;;16.00;99.90;;;;;;5474891;26;20435;-67
2024/05/05 12:29:15;;;;;;;1.73;0.95;;;15.80;99.90;;;;;;5470293;26;19924;-67
2024/05/05 12:31:42;;;;;;;1.20;1.10;;;15.80;99.90;;;;;;5474732;26;19998;-68
2024/05/05 12:34:08;;;;;;;1.23;0.90;;;15.80;99.90;;;;;;5465627;26;20017;-68
2024/05/05 12:37:01;;;;;;;;;;;15.90;99.90;;;;;;5467898;26;20336;-67
2024/05/05 12:39:29;;;;;;;2.33;1.77;;;16.20;99.90;;;;;;5472500;26;19923;-67
2024/05/05 12:41:58;;;;;;;1.25;0.95;;;16.40;99.90;;;;;;5470365;26;20011;-67
2024/05/05 12:44:24;;;;;;;2.30;1.30;;;16.50;99.90;;;;;;5469252;26;19995;-68
2024/05/05 12:47:06;;;;;;;;;;;16.50;99.90;;;;;;5476520;26;20012;-68